Humidity-temperature Sensor

Selected Measurement Type: Relative Humidity

 
Relative Humidity [%]     6 entries per hour
Showing data from 7/5/2020 (00:00:00 Z) to 7/2/2020 (00:01:00 Z)
Previous Next [ Day | 3-Days | 7-Days ]
First Last
Prev [ Day | 3-Days | 7-Days ] Next
First Last

Start Time:     :
End Time:     :     
Time (in GMT) :00 :50 :40 :30 :20 :10
Previous Next [ Day | 3-Days | 7-Days ]
First Last
Prev [ Day | 3-Days | 7-Days ] Next
First Last


123 => good data
MM => data is determined as missing
-- => data not received/configured
Back to Top Back to Top
7/5/2020 00:00 to 23:10 86.30 87.35 86.92 85.83 86.20 89.03
7/4/2020 23:00 to 22:10 88.60 89.05 88.00 88.56 87.86 87.61
7/4/2020 22:00 to 21:10 89.07 86.71 87.10 86.83 87.31 86.69
7/4/2020 21:00 to 20:10 86.73 86.63 87.84 86.46 86.22 86.46
7/4/2020 20:00 to 19:10 87.78 88.09 88.50 85.95 86.55 87.70
7/4/2020 19:00 to 18:10 87.37 88.05 88.72 88.21 88.27 84.31
7/4/2020 18:00 to 17:10 85.11 85.68 85.74 85.85 85.74 86.26
7/4/2020 17:00 to 16:10 87.08 88.23 89.09 89.05 89.63 88.48
7/4/2020 16:00 to 15:10 87.63 88.54 89.85 86.87 87.66 89.05
7/4/2020 15:00 to 14:10 91.68 91.37 91.25 90.37 89.16 89.05
7/4/2020 14:00 to 13:10 88.31 89.03 89.18 88.58 89.92 91.25
7/4/2020 13:00 to 12:10 91.85 92.03 94.05 95.05 95.75 95.53
7/4/2020 12:00 to 11:10 95.67 95.73 95.92 95.75 94.48 89.26
7/4/2020 11:00 to 10:10 86.53 86.61 87.35 87.86 89.57 90.51
7/4/2020 10:00 to 9:10 91.97 88.99 88.81 89.75 91.27 92.16
7/4/2020 09:00 to 8:10 93.70 94.74 95.36 95.55 95.01 94.21
7/4/2020 08:00 to 7:10 91.44 90.61 90.41 92.24 93.12 92.94
7/4/2020 07:00 to 6:10 94.15 94.03 92.59 91.44 91.05 91.23
7/4/2020 06:00 to 5:10 91.13 91.29 91.27 91.95 91.74 91.17
7/4/2020 05:00 to 4:10 89.81 84.33 85.46 86.63 88.19 87.04
7/4/2020 04:00 to 3:10 83.32 82.83 83.30 82.19 81.86 82.52
7/4/2020 03:00 to 2:10 81.78 82.76 81.26 81.22 80.77 81.53
7/4/2020 02:00 to 1:10 81.49 80.52 81.72 82.25 81.24 80.24
7/4/2020 01:00 to 0:10 79.97 79.66 80.38 80.67 79.93 79.17
7/4/2020 00:00 to 23:10 79.79 81.04 80.98 79.76 79.19 78.45
7/3/2020 23:00 to 22:10 79.19 77.18 78.80 79.68 79.11 79.42
7/3/2020 22:00 to 21:10 77.96 78.26 79.56 77.89 78.74 78.29
7/3/2020 21:00 to 20:10 79.60 78.59 79.66 79.54 81.31 80.69
7/3/2020 20:00 to 19:10 79.72 79.27 80.44 79.97 79.72 79.79
7/3/2020 19:00 to 18:10 79.62 80.73 81.00 80.94 81.55 82.46
7/3/2020 18:00 to 17:10 81.12 80.94 80.36 80.89 81.61 81.06
7/3/2020 17:00 to 16:10 81.26 80.52 80.09 79.66 80.13 80.22
7/3/2020 16:00 to 15:10 81.80 80.73 82.31 82.02 82.44 83.22
7/3/2020 15:00 to 14:10 82.99 83.01 83.22 83.69 84.68 85.07
7/3/2020 14:00 to 13:10 83.79 85.35 84.90 84.96 84.39 83.28
7/3/2020 13:00 to 12:10 84.24 84.53 83.69 86.05 86.09 85.89
7/3/2020 12:00 to 11:10 85.48 86.32 86.87 83.38 84.59 85.91
7/3/2020 11:00 to 10:10 85.05 86.50 86.42 87.63 86.75 84.90
7/3/2020 10:00 to 9:10 84.00 86.05 86.77 87.29 86.22 85.62
7/3/2020 09:00 to 8:10 80.77 81.00 81.70 80.69 81.35 81.80
7/3/2020 08:00 to 7:10 82.33 81.47 81.49 83.05 81.68 80.94
7/3/2020 07:00 to 6:10 82.85 82.74 83.09 81.33 86.46 88.60
7/3/2020 06:00 to 5:10 89.59 88.66 87.08 87.98 89.03 88.42
7/3/2020 05:00 to 4:10 85.46 81.04 80.89 80.07 80.01 80.73
7/3/2020 04:00 to 3:10 81.26 81.37 80.28 80.81 80.32 80.52
7/3/2020 03:00 to 2:10 81.53 82.11 82.44 81.94 81.63 81.55
7/3/2020 02:00 to 1:10 82.00 81.61 81.35 81.59 82.25 82.25
7/3/2020 01:00 to 0:10 82.81 81.66 82.56 81.80 84.80 83.44
7/3/2020 00:00 to 23:10 84.02 83.07 81.06 80.77 79.25 78.04
7/2/2020 23:00 to 22:10 78.90 79.31 80.01 80.57 80.69 80.55
7/2/2020 22:00 to 21:10 80.83 82.37 79.23 78.92 79.62 81.26
7/2/2020 21:00 to 20:10 81.51 81.98 81.59 80.24 79.37 79.79
7/2/2020 20:00 to 19:10 81.18 81.02 80.38 82.09 81.76 82.42
7/2/2020 19:00 to 18:10 81.29 81.63 82.97 85.79 91.37 84.29
7/2/2020 18:00 to 17:10 81.35 80.01 81.61 83.36 80.57 80.81
7/2/2020 17:00 to 16:10 81.35 83.50 81.63 82.89 83.09 81.98
7/2/2020 16:00 to 15:10 80.36 80.09 80.67 81.14 81.90 80.94
7/2/2020 15:00 to 14:10 81.24 81.51 81.96 81.90 82.68 82.07
7/2/2020 14:00 to 13:10 80.83 79.91 79.52 81.10 80.94 80.83
7/2/2020 13:00 to 12:10 79.81 83.05 83.61 83.34 84.82 84.72
7/2/2020 12:00 to 11:10 83.69 81.66 82.74 81.53 82.79 80.32
7/2/2020 11:00 to 10:10 82.44 82.87 82.79 82.27 84.00 84.20
7/2/2020 10:00 to 9:10 81.33 79.60 79.56 81.16 81.88 80.92
7/2/2020 09:00 to 8:10 80.03 79.74 77.44 77.98 79.81 79.70
7/2/2020 08:00 to 7:10 79.66 79.05 81.20 80.83 81.74 81.74
7/2/2020 07:00 to 6:10 81.57 80.38 81.14 80.92 79.46 79.21
7/2/2020 06:00 to 5:10 77.57 79.79 78.12 79.13 80.34 80.65
7/2/2020 05:00 to 4:10 79.62 80.40 78.35 79.91 81.18 80.09
7/2/2020 04:00 to 3:10 80.11 79.85 79.85 79.54 79.44 79.56
7/2/2020 03:00 to 2:10 80.73 81.00 81.06 80.57 81.98 81.43
7/2/2020 02:00 to 1:10 81.78 81.94 81.78 82.23 82.31 81.55
7/2/2020 01:00 to 0:10 80.63 84.66 84.18 83.65 82.00 81.74